sensor_id;sensor_type;location;lat;lon;timestamp;noise_LAeq;noise_LA_min;noise_LA_max;noise_LA01;noise_LA95
74234;Laerm;62591;55.764;37.718;2023-04-03T00:01:25;40.76;36.62;56.47;;
74234;Laerm;62591;55.764;37.718;2023-04-03T00:03:54;39.86;36.59;57.31;;
74234;Laerm;62591;55.764;37.718;2023-04-03T00:06:23;47.00;36.36;60.75;;
74234;Laerm;62591;55.764;37.718;2023-04-03T00:08:52;49.42;37.49;60.39;;
74234;Laerm;62591;55.764;37.718;2023-04-03T00:11:21;42.22;37.76;54.87;;
74234;Laerm;62591;55.764;37.718;2023-04-03T00:13:49;44.08;36.48;57.80;;
74234;Laerm;62591;55.764;37.718;2023-04-03T00:16:19;42.43;36.56;54.84;;
74234;Laerm;62591;55.764;37.718;2023-04-03T00:18:48;43.45;37.07;56.29;;
74234;Laerm;62591;55.764;37.718;2023-04-03T00:21:17;41.57;37.06;54.44;;
74234;Laerm;62591;55.764;37.718;2023-04-03T00:23:46;41.30;36.58;55.95;;
74234;Laerm;62591;55.764;37.718;2023-04-03T00:26:14;41.10;36.84;54.56;;
74234;Laerm;62591;55.764;37.718;2023-04-03T00:28:43;42.74;37.14;56.84;;
74234;Laerm;62591;55.764;37.718;2023-04-03T00:31:14;39.86;36.84;54.01;;
74234;Laerm;62591;55.764;37.718;2023-04-03T00:33:42;40.36;37.30;56.93;;
74234;Laerm;62591;55.764;37.718;2023-04-03T00:36:12;44.19;37.10;58.66;;
74234;Laerm;62591;55.764;37.718;2023-04-03T00:38:42;42.84;37.21;57.09;;
74234;Laerm;62591;55.764;37.718;2023-04-03T00:41:11;41.77;37.25;58.56;;
74234;Laerm;62591;55.764;37.718;2023-04-03T00:43:39;41.23;37.11;57.23;;
74234;Laerm;62591;55.764;37.718;2023-04-03T00:46:08;42.28;37.40;56.75;;
74234;Laerm;62591;55.764;37.718;2023-04-03T00:48:40;39.64;36.57;55.14;;
74234;Laerm;62591;55.764;37.718;2023-04-03T00:51:14;52.74;37.00;68.92;;
74234;Laerm;62591;55.764;37.718;2023-04-03T00:53:46;41.99;36.79;54.11;;
74234;Laerm;62591;55.764;37.718;2023-04-03T00:56:18;42.44;37.14;61.82;;
74234;Laerm;62591;55.764;37.718;2023-04-03T00:58:52;45.43;36.96;58.54;;
74234;Laerm;62591;55.764;37.718;2023-04-03T01:01:25;44.97;38.02;55.46;;
74234;Laerm;62591;55.764;37.718;2023-04-03T01:03:54;43.19;38.11;54.55;;
74234;Laerm;62591;55.764;37.718;2023-04-03T01:06:29;43.24;37.55;57.38;;
74234;Laerm;62591;55.764;37.718;2023-04-03T01:09:05;47.93;37.80;63.07;;
74234;Laerm;62591;55.764;37.718;2023-04-03T01:11:34;47.93;38.06;65.26;;
74234;Laerm;62591;55.764;37.718;2023-04-03T01:14:03;43.21;37.33;56.25;;
74234;Laerm;62591;55.764;37.718;2023-04-03T01:16:33;46.05;37.97;63.58;;
74234;Laerm;62591;55.764;37.718;2023-04-03T01:19:03;43.24;37.84;58.94;;
74234;Laerm;62591;55.764;37.718;2023-04-03T01:22:04;49.14;38.38;59.79;;
74234;Laerm;62591;55.764;37.718;2023-04-03T01:24:37;48.76;38.11;60.35;;
74234;Laerm;62591;55.764;37.718;2023-04-03T01:27:10;41.79;38.78;56.20;;
74234;Laerm;62591;55.764;37.718;2023-04-03T01:29:40;48.34;39.31;57.12;;
74234;Laerm;62591;55.764;37.718;2023-04-03T01:32:12;42.69;38.79;51.93;;
74234;Laerm;62591;55.764;37.718;2023-04-03T01:34:41;44.24;38.28;57.83;;
74234;Laerm;62591;55.764;37.718;2023-04-03T01:37:10;42.58;37.94;54.02;;
74234;Laerm;62591;55.764;37.718;2023-04-03T01:39:39;48.51;39.85;56.12;;
74234;Laerm;62591;55.764;37.718;2023-04-03T01:42:07;44.95;38.00;54.91;;
74234;Laerm;62591;55.764;37.718;2023-04-03T01:44:40;45.98;39.46;54.54;;
74234;Laerm;62591;55.764;37.718;2023-04-03T01:47:09;48.59;39.20;56.90;;
74234;Laerm;62591;55.764;37.718;2023-04-03T01:49:41;43.03;39.17;54.37;;
74234;Laerm;62591;55.764;37.718;2023-04-03T01:52:10;43.10;38.39;58.60;;
74234;Laerm;62591;55.764;37.718;2023-04-03T01:54:38;41.34;36.94;49.69;;
74234;Laerm;62591;55.764;37.718;2023-04-03T01:57:07;42.68;37.12;54.45;;
74234;Laerm;62591;55.764;37.718;2023-04-03T01:59:36;44.95;37.93;55.82;;
74234;Laerm;62591;55.764;37.718;2023-04-03T02:02:04;45.62;38.57;60.75;;
74234;Laerm;62591;55.764;37.718;2023-04-03T02:04:33;48.15;40.36;59.37;;
74234;Laerm;62591;55.764;37.718;2023-04-03T02:07:03;45.91;39.24;55.44;;
74234;Laerm;62591;55.764;37.718;2023-04-03T02:09:33;50.93;39.53;63.03;;
74234;Laerm;62591;55.764;37.718;2023-04-03T02:12:02;45.09;38.73;57.38;;
74234;Laerm;62591;55.764;37.718;2023-04-03T02:14:32;46.74;37.76;57.35;;
74234;Laerm;62591;55.764;37.718;2023-04-03T02:17:01;44.03;38.62;53.69;;
74234;Laerm;62591;55.764;37.718;2023-04-03T02:19:32;46.63;38.91;57.14;;
74234;Laerm;62591;55.764;37.718;2023-04-03T02:22:00;43.49;39.25;53.10;;
74234;Laerm;62591;55.764;37.718;2023-04-03T02:24:30;45.26;39.33;55.10;;
74234;Laerm;62591;55.764;37.718;2023-04-03T02:26:59;47.19;39.81;57.83;;
74234;Laerm;62591;55.764;37.718;2023-04-03T02:33:58;47.20;39.58;59.15;;
74234;Laerm;62591;55.764;37.718;2023-04-03T02:36:27;55.32;40.19;75.13;;
74234;Laerm;62591;55.764;37.718;2023-04-03T02:39:02;45.70;39.98;58.97;;
74234;Laerm;62591;55.764;37.718;2023-04-03T02:41:32;47.39;40.32;56.66;;
74234;Laerm;62591;55.764;37.718;2023-04-03T02:44:07;48.30;40.25;57.81;;
74234;Laerm;62591;55.764;37.718;2023-04-03T02:46:37;45.86;41.05;54.48;;
74234;Laerm;62591;55.764;37.718;2023-04-03T02:49:06;49.42;41.84;60.94;;
74234;Laerm;62591;55.764;37.718;2023-04-03T02:51:34;47.19;41.26;58.90;;
74234;Laerm;62591;55.764;37.718;2023-04-03T02:54:03;48.49;42.00;57.09;;
74234;Laerm;62591;55.764;37.718;2023-04-03T02:56:35;48.18;41.08;64.05;;
74234;Laerm;62591;55.764;37.718;2023-04-03T02:59:04;49.07;41.51;64.77;;
74234;Laerm;62591;55.764;37.718;2023-04-03T03:01:35;49.77;41.83;61.49;;
74234;Laerm;62591;55.764;37.718;2023-04-03T03:04:04;45.87;41.37;53.85;;
74234;Laerm;62591;55.764;37.718;2023-04-03T03:06:32;51.16;42.60;59.92;;
74234;Laerm;62591;55.764;37.718;2023-04-03T03:09:00;47.79;41.91;59.02;;
74234;Laerm;62591;55.764;37.718;2023-04-03T03:11:30;48.77;42.29;57.91;;
74234;Laerm;62591;55.764;37.718;2023-04-03T03:14:00;52.83;42.49;60.56;;
74234;Laerm;62591;55.764;37.718;2023-04-03T03:16:28;49.31;42.55;56.59;;
74234;Laerm;62591;55.764;37.718;2023-04-03T03:18:57;50.12;42.56;58.20;;
74234;Laerm;62591;55.764;37.718;2023-04-03T03:21:27;50.67;42.49;62.66;;
74234;Laerm;62591;55.764;37.718;2023-04-03T03:23:55;50.51;44.41;62.67;;
74234;Laerm;62591;55.764;37.718;2023-04-03T03:26:24;48.73;43.95;56.41;;
74234;Laerm;62591;55.764;37.718;2023-04-03T03:28:54;52.94;43.85;66.25;;
74234;Laerm;62591;55.764;37.718;2023-04-03T03:31:24;49.69;43.70;57.63;;
74234;Laerm;62591;55.764;37.718;2023-04-03T03:33:53;50.97;44.57;58.72;;
74234;Laerm;62591;55.764;37.718;2023-04-03T03:36:22;53.29;46.59;64.12;;
74234;Laerm;62591;55.764;37.718;2023-04-03T03:38:50;49.09;43.60;62.49;;
74234;Laerm;62591;55.764;37.718;2023-04-03T03:41:19;50.98;43.66;71.62;;
74234;Laerm;62591;55.764;37.718;2023-04-03T03:43:48;51.79;44.51;59.21;;
74234;Laerm;62591;55.764;37.718;2023-04-03T03:46:16;54.67;44.96;77.29;;
74234;Laerm;62591;55.764;37.718;2023-04-03T03:48:46;49.64;43.00;63.29;;
74234;Laerm;62591;55.764;37.718;2023-04-03T03:51:15;50.41;44.39;56.34;;
74234;Laerm;62591;55.764;37.718;2023-04-03T03:53:44;50.12;44.24;58.65;;
74234;Laerm;62591;55.764;37.718;2023-04-03T03:56:15;50.26;44.70;57.79;;
74234;Laerm;62591;55.764;37.718;2023-04-03T03:58:45;51.89;46.22;61.10;;
74234;Laerm;62591;55.764;37.718;2023-04-03T04:01:14;51.71;44.37;62.71;;
74234;Laerm;62591;55.764;37.718;2023-04-03T04:03:48;50.88;45.66;59.93;;
74234;Laerm;62591;55.764;37.718;2023-04-03T04:06:21;50.12;43.70;58.68;;
74234;Laerm;62591;55.764;37.718;2023-04-03T04:08:51;53.68;46.81;61.13;;
74234;Laerm;62591;55.764;37.718;2023-04-03T04:11:19;50.29;45.61;65.83;;
74234;Laerm;62591;55.764;37.718;2023-04-03T04:13:50;51.24;44.45;58.43;;
74234;Laerm;62591;55.764;37.718;2023-04-03T04:16:21;52.74;45.66;60.19;;
74234;Laerm;62591;55.764;37.718;2023-04-03T04:18:51;52.83;44.80;69.37;;
74234;Laerm;62591;55.764;37.718;2023-04-03T04:21:20;53.19;44.38;62.33;;
74234;Laerm;62591;55.764;37.718;2023-04-03T04:23:51;53.27;46.21;68.58;;
74234;Laerm;62591;55.764;37.718;2023-04-03T04:26:20;51.79;45.06;60.39;;
74234;Laerm;62591;55.764;37.718;2023-04-03T04:28:48;48.98;44.35;55.30;;
74234;Laerm;62591;55.764;37.718;2023-04-03T04:31:18;51.15;44.84;61.85;;
74234;Laerm;62591;55.764;37.718;2023-04-03T04:33:48;53.28;46.84;60.16;;
74234;Laerm;62591;55.764;37.718;2023-04-03T04:36:19;52.40;46.70;63.11;;
74234;Laerm;62591;55.764;37.718;2023-04-03T04:38:48;52.91;48.10;59.34;;
74234;Laerm;62591;55.764;37.718;2023-04-03T04:41:22;51.90;45.68;59.62;;
74234;Laerm;62591;55.764;37.718;2023-04-03T04:43:52;52.36;46.74;62.08;;
74234;Laerm;62591;55.764;37.718;2023-04-03T04:46:21;50.44;45.46;60.78;;
74234;Laerm;62591;55.764;37.718;2023-04-03T04:48:54;52.12;47.51;69.99;;
74234;Laerm;62591;55.764;37.718;2023-04-03T04:51:26;54.70;47.21;68.28;;
74234;Laerm;62591;55.764;37.718;2023-04-03T04:54:02;53.28;44.38;64.58;;
74234;Laerm;62591;55.764;37.718;2023-04-03T04:56:32;50.62;44.60;60.02;;
74234;Laerm;62591;55.764;37.718;2023-04-03T04:59:01;51.79;46.44;60.02;;
74234;Laerm;62591;55.764;37.718;2023-04-03T05:01:30;51.62;44.47;67.38;;
74234;Laerm;62591;55.764;37.718;2023-04-03T05:04:08;52.62;43.88;62.57;;
74234;Laerm;62591;55.764;37.718;2023-04-03T05:06:39;52.94;47.52;64.20;;
74234;Laerm;62591;55.764;37.718;2023-04-03T05:09:13;51.52;46.20;58.52;;
74234;Laerm;62591;55.764;37.718;2023-04-03T05:11:43;52.67;48.07;70.98;;
74234;Laerm;62591;55.764;37.718;2023-04-03T05:14:14;52.71;46.57;68.76;;
74234;Laerm;62591;55.764;37.718;2023-04-03T05:16:45;52.28;47.19;64.33;;
74234;Laerm;62591;55.764;37.718;2023-04-03T05:19:28;51.06;45.30;60.43;;
74234;Laerm;62591;55.764;37.718;2023-04-03T05:21:59;53.98;45.04;61.04;;
74234;Laerm;62591;55.764;37.718;2023-04-03T05:24:30;50.92;45.97;59.89;;
74234;Laerm;62591;55.764;37.718;2023-04-03T05:26:59;51.38;44.70;65.43;;
74234;Laerm;62591;55.764;37.718;2023-04-03T05:29:29;50.46;44.88;57.68;;
74234;Laerm;62591;55.764;37.718;2023-04-03T05:31:59;52.90;45.32;67.01;;
74234;Laerm;62591;55.764;37.718;2023-04-03T05:34:28;50.71;45.05;64.66;;
74234;Laerm;62591;55.764;37.718;2023-04-03T05:36:58;49.40;44.08;54.32;;
74234;Laerm;62591;55.764;37.718;2023-04-03T05:39:28;51.90;44.61;59.82;;
74234;Laerm;62591;55.764;37.718;2023-04-03T05:41:59;51.58;44.71;60.73;;
74234;Laerm;62591;55.764;37.718;2023-04-03T05:44:30;50.41;44.45;57.50;;
74234;Laerm;62591;55.764;37.718;2023-04-03T05:46:59;51.71;45.61;70.83;;
74234;Laerm;62591;55.764;37.718;2023-04-03T05:49:27;49.93;45.58;56.40;;
74234;Laerm;62591;55.764;37.718;2023-04-03T05:51:56;51.93;44.35;61.86;;
74234;Laerm;62591;55.764;37.718;2023-04-03T05:54:31;50.15;44.38;56.94;;
74234;Laerm;62591;55.764;37.718;2023-04-03T05:57:07;54.23;46.63;68.06;;
74234;Laerm;62591;55.764;37.718;2023-04-03T05:59:37;53.27;46.27;66.71;;
74234;Laerm;62591;55.764;37.718;2023-04-03T06:02:05;50.05;43.09;55.24;;
74234;Laerm;62591;55.764;37.718;2023-04-03T06:04:36;49.74;43.84;57.00;;
74234;Laerm;62591;55.764;37.718;2023-04-03T06:07:05;51.98;44.04;58.49;;
74234;Laerm;62591;55.764;37.718;2023-04-03T06:09:36;50.82;42.99;62.24;;
74234;Laerm;62591;55.764;37.718;2023-04-03T06:12:04;50.07;43.93;63.30;;
74234;Laerm;62591;55.764;37.718;2023-04-03T06:14:33;50.02;42.79;60.82;;
74234;Laerm;62591;55.764;37.718;2023-04-03T06:17:02;50.70;43.19;58.19;;
74234;Laerm;62591;55.764;37.718;2023-04-03T06:19:31;49.27;42.54;58.76;;
74234;Laerm;62591;55.764;37.718;2023-04-03T06:22:00;50.80;42.10;57.91;;
74234;Laerm;62591;55.764;37.718;2023-04-03T06:24:30;48.55;41.70;55.25;;
74234;Laerm;62591;55.764;37.718;2023-04-03T06:27:00;49.72;42.98;56.84;;
74234;Laerm;62591;55.764;37.718;2023-04-03T06:29:29;52.21;43.77;63.67;;
74234;Laerm;62591;55.764;37.718;2023-04-03T06:31:58;49.41;42.84;59.42;;
74234;Laerm;62591;55.764;37.718;2023-04-03T06:34:26;49.97;43.26;61.02;;
74234;Laerm;62591;55.764;37.718;2023-04-03T06:36:55;52.38;42.73;60.48;;
74234;Laerm;62591;55.764;37.718;2023-04-03T06:39:23;51.22;44.80;65.17;;
74234;Laerm;62591;55.764;37.718;2023-04-03T06:41:52;57.75;46.79;63.14;;
74234;Laerm;62591;55.764;37.718;2023-04-03T06:44:30;60.53;51.92;66.56;;
74234;Laerm;62591;55.764;37.718;2023-04-03T06:47:01;56.21;49.96;63.39;;
74234;Laerm;62591;55.764;37.718;2023-04-03T06:49:29;53.35;47.18;63.90;;
74234;Laerm;62591;55.764;37.718;2023-04-03T06:51:58;51.66;45.61;57.79;;
74234;Laerm;62591;55.764;37.718;2023-04-03T06:54:28;49.55;43.48;57.18;;
74234;Laerm;62591;55.764;37.718;2023-04-03T06:56:57;54.56;45.39;62.22;;
74234;Laerm;62591;55.764;37.718;2023-04-03T06:59:26;52.65;47.06;69.68;;
74234;Laerm;62591;55.764;37.718;2023-04-03T07:01:56;51.03;43.77;64.13;;
74234;Laerm;62591;55.764;37.718;2023-04-03T07:04:27;51.80;45.20;62.32;;
74234;Laerm;62591;55.764;37.718;2023-04-03T07:06:56;51.78;46.08;58.30;;
74234;Laerm;62591;55.764;37.718;2023-04-03T07:09:24;50.52;43.29;67.88;;
74234;Laerm;62591;55.764;37.718;2023-04-03T07:11:53;51.39;44.03;57.20;;
74234;Laerm;62591;55.764;37.718;2023-04-03T07:14:21;50.36;43.14;58.72;;
74234;Laerm;62591;55.764;37.718;2023-04-03T07:16:50;51.91;43.04;58.99;;
74234;Laerm;62591;55.764;37.718;2023-04-03T07:19:20;49.88;43.21;59.30;;
74234;Laerm;62591;55.764;37.718;2023-04-03T07:21:48;50.20;44.17;56.82;;
74234;Laerm;62591;55.764;37.718;2023-04-03T07:24:17;52.03;42.06;67.53;;
74234;Laerm;62591;55.764;37.718;2023-04-03T07:26:49;52.21;44.72;64.21;;
74234;Laerm;62591;55.764;37.718;2023-04-03T07:29:17;55.34;44.44;69.29;;
74234;Laerm;62591;55.764;37.718;2023-04-03T07:31:47;64.62;46.50;75.44;;
74234;Laerm;62591;55.764;37.718;2023-04-03T07:34:16;55.50;40.75;68.26;;
74234;Laerm;62591;55.764;37.718;2023-04-03T07:36:46;58.61;44.68;68.95;;
74234;Laerm;62591;55.764;37.718;2023-04-03T07:39:14;50.83;43.06;61.98;;
74234;Laerm;62591;55.764;37.718;2023-04-03T07:41:43;50.29;42.70;64.10;;
74234;Laerm;62591;55.764;37.718;2023-04-03T07:44:11;51.19;42.69;70.83;;
74234;Laerm;62591;55.764;37.718;2023-04-03T07:46:40;49.23;41.44;56.27;;
74234;Laerm;62591;55.764;37.718;2023-04-03T07:49:09;48.62;42.09;56.92;;
74234;Laerm;62591;55.764;37.718;2023-04-03T07:51:38;49.36;40.89;58.28;;
74234;Laerm;62591;55.764;37.718;2023-04-03T07:54:08;50.55;42.78;63.31;;
74234;Laerm;62591;55.764;37.718;2023-04-03T07:56:36;51.00;43.78;63.46;;
74234;Laerm;62591;55.764;37.718;2023-04-03T07:59:05;50.76;43.21;66.48;;
74234;Laerm;62591;55.764;37.718;2023-04-03T08:01:33;52.81;44.68;62.56;;
74234;Laerm;62591;55.764;37.718;2023-04-03T08:04:02;52.09;44.61;62.63;;
74234;Laerm;62591;55.764;37.718;2023-04-03T08:06:31;55.71;46.22;69.87;;
74234;Laerm;62591;55.764;37.718;2023-04-03T08:09:15;53.38;45.32;65.01;;
74234;Laerm;62591;55.764;37.718;2023-04-03T08:11:45;52.84;44.04;63.90;;
74234;Laerm;62591;55.764;37.718;2023-04-03T08:14:13;52.97;42.82;68.06;;
74234;Laerm;62591;55.764;37.718;2023-04-03T08:16:46;52.51;44.20;69.45;;
74234;Laerm;62591;55.764;37.718;2023-04-03T08:19:16;51.97;41.74;63.88;;
74234;Laerm;62591;55.764;37.718;2023-04-03T08:21:54;51.77;44.57;63.25;;
74234;Laerm;62591;55.764;37.718;2023-04-03T08:24:27;53.89;44.61;67.10;;
74234;Laerm;62591;55.764;37.718;2023-04-03T08:30:13;54.13;46.07;63.97;;
74234;Laerm;62591;55.764;37.718;2023-04-03T08:32:42;54.59;46.15;65.18;;
74234;Laerm;62591;55.764;37.718;2023-04-03T08:35:11;52.78;43.01;65.60;;
74234;Laerm;62591;55.764;37.718;2023-04-03T08:37:40;53.58;44.08;75.57;;
74234;Laerm;62591;55.764;37.718;2023-04-03T08:40:15;51.44;46.07;69.38;;
74234;Laerm;62591;55.764;37.718;2023-04-03T08:42:59;51.43;43.54;62.24;;
74234;Laerm;62591;55.764;37.718;2023-04-03T08:45:40;50.98;43.30;61.94;;
74234;Laerm;62591;55.764;37.718;2023-04-03T08:48:14;49.96;44.23;60.45;;
74234;Laerm;62591;55.764;37.718;2023-04-03T08:50:49;50.12;43.87;59.69;;
74234;Laerm;62591;55.764;37.718;2023-04-03T08:53:20;51.39;43.08;61.83;;
74234;Laerm;62591;55.764;37.718;2023-04-03T08:55:53;50.31;43.41;61.87;;
74234;Laerm;62591;55.764;37.718;2023-04-03T08:58:25;50.67;43.24;58.45;;
74234;Laerm;62591;55.764;37.718;2023-04-03T09:00:57;50.37;42.53;66.83;;
74234;Laerm;62591;55.764;37.718;2023-04-03T09:03:31;58.92;43.83;73.92;;
74234;Laerm;62591;55.764;37.718;2023-04-03T09:06:04;63.56;43.18;76.44;;
74234;Laerm;62591;55.764;37.718;2023-04-03T09:08:38;49.19;41.30;60.39;;
74234;Laerm;62591;55.764;37.718;2023-04-03T09:11:15;49.59;42.30;57.58;;
74234;Laerm;62591;55.764;37.718;2023-04-03T09:13:50;50.32;43.21;59.26;;
74234;Laerm;62591;55.764;37.718;2023-04-03T09:16:31;60.34;43.81;72.64;;
74234;Laerm;62591;55.764;37.718;2023-04-03T09:19:11;56.62;40.67;69.26;;
74234;Laerm;62591;55.764;37.718;2023-04-03T09:21:46;57.91;45.44;69.00;;
74234;Laerm;62591;55.764;37.718;2023-04-03T09:24:16;59.48;43.52;76.34;;
74234;Laerm;62591;55.764;37.718;2023-04-03T09:26:51;55.50;45.37;67.36;;
74234;Laerm;62591;55.764;37.718;2023-04-03T09:29:23;52.30;43.55;61.19;;
74234;Laerm;62591;55.764;37.718;2023-04-03T09:31:56;51.08;43.35;60.56;;
74234;Laerm;62591;55.764;37.718;2023-04-03T09:34:30;53.26;43.24;62.99;;
74234;Laerm;62591;55.764;37.718;2023-04-03T09:37:00;53.34;43.44;69.89;;
74234;Laerm;62591;55.764;37.718;2023-04-03T09:39:49;48.39;41.14;55.81;;
74234;Laerm;62591;55.764;37.718;2023-04-03T09:42:21;54.56;42.22;69.85;;
74234;Laerm;62591;55.764;37.718;2023-04-03T09:44:54;52.84;40.83;68.33;;
74234;Laerm;62591;55.764;37.718;2023-04-03T09:47:25;50.49;42.47;62.57;;
74234;Laerm;62591;55.764;37.718;2023-04-03T09:50:18;49.65;42.85;63.11;;
74234;Laerm;62591;55.764;37.718;2023-04-03T09:52:48;48.54;41.11;55.54;;
74234;Laerm;62591;55.764;37.718;2023-04-03T09:55:22;49.03;41.72;56.03;;
74234;Laerm;62591;55.764;37.718;2023-04-03T09:57:58;49.43;41.71;63.41;;
74234;Laerm;62591;55.764;37.718;2023-04-03T10:00:31;52.75;44.63;64.03;;
74234;Laerm;62591;55.764;37.718;2023-04-03T10:03:02;52.90;43.60;63.66;;
74234;Laerm;62591;55.764;37.718;2023-04-03T10:05:34;49.02;42.69;54.81;;
74234;Laerm;62591;55.764;37.718;2023-04-03T10:08:22;49.92;43.70;57.42;;
74234;Laerm;62591;55.764;37.718;2023-04-03T10:11:14;52.75;44.71;65.17;;
74234;Laerm;62591;55.764;37.718;2023-04-03T10:13:54;49.00;42.58;58.22;;
74234;Laerm;62591;55.764;37.718;2023-04-03T10:16:26;48.80;42.35;66.26;;
74234;Laerm;62591;55.764;37.718;2023-04-03T10:19:09;49.77;43.73;62.10;;
74234;Laerm;62591;55.764;37.718;2023-04-03T10:21:46;64.38;43.24;76.08;;
74234;Laerm;62591;55.764;37.718;2023-04-03T10:24:21;53.54;43.67;63.43;;
74234;Laerm;62591;55.764;37.718;2023-04-03T10:26:56;52.93;45.97;66.86;;
74234;Laerm;62591;55.764;37.718;2023-04-03T10:29:40;49.73;42.83;63.98;;
74234;Laerm;62591;55.764;37.718;2023-04-03T10:32:19;51.78;42.49;73.59;;
74234;Laerm;62591;55.764;37.718;2023-04-03T10:34:52;50.98;42.86;59.27;;
74234;Laerm;62591;55.764;37.718;2023-04-03T10:37:35;50.53;44.19;61.80;;
74234;Laerm;62591;55.764;37.718;2023-04-03T10:40:24;48.97;42.97;61.15;;
74234;Laerm;62591;55.764;37.718;2023-04-03T10:43:05;48.37;42.72;55.38;;
74234;Laerm;62591;55.764;37.718;2023-04-03T10:45:51;48.71;42.62;60.17;;
74234;Laerm;62591;55.764;37.718;2023-04-03T10:48:24;49.50;43.18;56.67;;
74234;Laerm;62591;55.764;37.718;2023-04-03T10:51:01;50.27;41.48;66.79;;
74234;Laerm;62591;55.764;37.718;2023-04-03T10:53:39;51.15;44.11;64.81;;
74234;Laerm;62591;55.764;37.718;2023-04-03T10:56:14;51.15;42.85;63.47;;
74234;Laerm;62591;55.764;37.718;2023-04-03T10:58:45;48.71;42.80;57.57;;
74234;Laerm;62591;55.764;37.718;2023-04-03T11:01:20;49.85;42.86;58.86;;
74234;Laerm;62591;55.764;37.718;2023-04-03T11:03:51;48.26;42.37;63.80;;
74234;Laerm;62591;55.764;37.718;2023-04-03T11:06:23;53.60;42.84;65.00;;
74234;Laerm;62591;55.764;37.718;2023-04-03T11:08:55;49.18;42.99;61.11;;
74234;Laerm;62591;55.764;37.718;2023-04-03T11:11:27;52.55;44.58;64.18;;
74234;Laerm;62591;55.764;37.718;2023-04-03T11:14:01;50.43;43.78;60.53;;
74234;Laerm;62591;55.764;37.718;2023-04-03T11:16:36;50.32;42.90;66.70;;
74234;Laerm;62591;55.764;37.718;2023-04-03T11:19:21;49.78;42.78;57.63;;
74234;Laerm;62591;55.764;37.718;2023-04-03T11:21:54;52.47;41.80;63.22;;
74234;Laerm;62591;55.764;37.718;2023-04-03T11:24:27;52.18;41.69;63.26;;
74234;Laerm;62591;55.764;37.718;2023-04-03T11:27:00;50.23;41.54;68.25;;
74234;Laerm;62591;55.764;37.718;2023-04-03T11:29:34;49.48;42.44;60.59;;
74234;Laerm;62591;55.764;37.718;2023-04-03T11:32:13;50.68;43.10;59.91;;
74234;Laerm;62591;55.764;37.718;2023-04-03T11:34:48;48.01;41.39;57.34;;
74234;Laerm;62591;55.764;37.718;2023-04-03T11:37:27;50.88;42.04;59.09;;
74234;Laerm;62591;55.764;37.718;2023-04-03T11:40:00;50.27;43.24;63.09;;
74234;Laerm;62591;55.764;37.718;2023-04-03T11:42:32;49.82;42.87;61.33;;
74234;Laerm;62591;55.764;37.718;2023-04-03T11:45:34;51.74;43.27;63.14;;
74234;Laerm;62591;55.764;37.718;2023-04-03T11:48:06;51.44;44.60;60.98;;
74234;Laerm;62591;55.764;37.718;2023-04-03T11:50:49;51.17;42.68;69.19;;
74234;Laerm;62591;55.764;37.718;2023-04-03T11:53:35;51.04;44.57;59.40;;
74234;Laerm;62591;55.764;37.718;2023-04-03T11:59:15;51.83;42.85;62.06;;
74234;Laerm;62591;55.764;37.718;2023-04-03T12:01:50;53.55;45.24;65.11;;
74234;Laerm;62591;55.764;37.718;2023-04-03T12:04:22;53.79;43.23;72.33;;
74234;Laerm;62591;55.764;37.718;2023-04-03T12:07:16;60.70;44.14;80.45;;
74234;Laerm;62591;55.764;37.718;2023-04-03T12:10:00;53.47;45.04;71.40;;
74234;Laerm;62591;55.764;37.718;2023-04-03T12:12:35;52.52;44.39;70.12;;
74234;Laerm;62591;55.764;37.718;2023-04-03T12:15:21;61.03;43.60;82.62;;
74234;Laerm;62591;55.764;37.718;2023-04-03T12:17:53;49.04;42.79;62.72;;
74234;Laerm;62591;55.764;37.718;2023-04-03T12:20:53;53.98;42.51;63.95;;
74234;Laerm;62591;55.764;37.718;2023-04-03T12:23:27;50.85;43.25;59.61;;
74234;Laerm;62591;55.764;37.718;2023-04-03T12:26:05;50.55;43.44;59.95;;
74234;Laerm;62591;55.764;37.718;2023-04-03T12:28:39;51.47;44.38;60.25;;
74234;Laerm;62591;55.764;37.718;2023-04-03T12:31:10;50.66;43.69;58.48;;
74234;Laerm;62591;55.764;37.718;2023-04-03T12:34:04;52.57;44.50;62.88;;
74234;Laerm;62591;55.764;37.718;2023-04-03T12:36:49;52.64;45.15;74.52;;
74234;Laerm;62591;55.764;37.718;2023-04-03T12:39:52;51.23;44.61;59.84;;
74234;Laerm;62591;55.764;37.718;2023-04-03T12:45:24;59.45;45.62;66.12;;
74234;Laerm;62591;55.764;37.718;2023-04-03T12:47:55;50.84;44.41;59.37;;
74234;Laerm;62591;55.764;37.718;2023-04-03T12:50:27;53.62;45.39;63.32;;
74234;Laerm;62591;55.764;37.718;2023-04-03T12:53:01;51.62;44.12;62.30;;
74234;Laerm;62591;55.764;37.718;2023-04-03T12:55:33;52.17;43.46;69.58;;
74234;Laerm;62591;55.764;37.718;2023-04-03T12:58:23;50.42;43.86;61.83;;
74234;Laerm;62591;55.764;37.718;2023-04-03T13:01:01;49.81;43.05;62.43;;
74234;Laerm;62591;55.764;37.718;2023-04-03T13:03:30;51.59;45.12;60.93;;
74234;Laerm;62591;55.764;37.718;2023-04-03T13:06:00;51.29;44.34;63.28;;
74234;Laerm;62591;55.764;37.718;2023-04-03T13:08:33;53.50;45.48;63.58;;
74234;Laerm;62591;55.764;37.718;2023-04-03T13:11:05;50.49;44.02;60.77;;
74234;Laerm;62591;55.764;37.718;2023-04-03T13:13:36;52.00;46.05;59.10;;
74234;Laerm;62591;55.764;37.718;2023-04-03T13:16:09;53.00;48.81;58.98;;
74234;Laerm;62591;55.764;37.718;2023-04-03T13:18:38;52.34;48.18;58.05;;
74234;Laerm;62591;55.764;37.718;2023-04-03T13:21:13;52.88;47.67;71.11;;
74234;Laerm;62591;55.764;37.718;2023-04-03T13:23:48;51.59;48.42;63.28;;
74234;Laerm;62591;55.764;37.718;2023-04-03T13:26:26;53.22;47.75;64.78;;
74234;Laerm;62591;55.764;37.718;2023-04-03T13:28:57;50.31;44.17;60.30;;
74234;Laerm;62591;55.764;37.718;2023-04-03T13:31:29;52.96;43.28;70.63;;
74234;Laerm;62591;55.764;37.718;2023-04-03T13:34:04;51.92;43.94;60.48;;
74234;Laerm;62591;55.764;37.718;2023-04-03T13:36:35;51.47;44.67;58.61;;
74234;Laerm;62591;55.764;37.718;2023-04-03T13:39:21;52.26;44.10;60.72;;
74234;Laerm;62591;55.764;37.718;2023-04-03T13:41:53;52.16;44.79;66.07;;
74234;Laerm;62591;55.764;37.718;2023-04-03T13:44:34;52.76;43.08;64.72;;
74234;Laerm;62591;55.764;37.718;2023-04-03T13:47:17;49.84;43.52;62.70;;
74234;Laerm;62591;55.764;37.718;2023-04-03T13:49:59;51.23;43.49;72.74;;
74234;Laerm;62591;55.764;37.718;2023-04-03T13:52:31;50.61;44.91;69.55;;
74234;Laerm;62591;55.764;37.718;2023-04-03T13:55:18;50.27;44.31;60.32;;
74234;Laerm;62591;55.764;37.718;2023-04-03T13:57:54;50.59;43.68;70.60;;
74234;Laerm;62591;55.764;37.718;2023-04-03T14:00:35;51.16;43.90;61.02;;
74234;Laerm;62591;55.764;37.718;2023-04-03T14:03:13;49.17;42.92;63.93;;
74234;Laerm;62591;55.764;37.718;2023-04-03T14:05:43;50.78;43.78;58.88;;
74234;Laerm;62591;55.764;37.718;2023-04-03T14:08:12;52.38;44.34;62.99;;
74234;Laerm;62591;55.764;37.718;2023-04-03T14:10:43;52.70;46.85;62.47;;
74234;Laerm;62591;55.764;37.718;2023-04-03T14:13:13;52.33;45.52;71.55;;
74234;Laerm;62591;55.764;37.718;2023-04-03T14:15:44;50.79;43.78;59.15;;